Time;durP1;ratioP1;P1;durP2;ratioP2;P2;SDS_P1;SDS_P2;PMS_P1;PMS_P2;Temp;Humidity;BMP_temperature;BMP_pressure;BME280_temperature;BME280_humidity;BME280_pressure;Samples;Min_cycle;Max_cycle;Signal;HPM_P1;HPM_P2
2023/06/01 00:00:10;;;;;;;;;12.67;12.00;;;;;-147.17;100.00;36015.41;5081311;27;50869;-52
2023/06/01 00:02:36;;;;;;;;;9.00;9.00;;;;;-147.17;100.00;35019.13;5088208;27;52081;-51
2023/06/01 00:05:01;;;;;;;;;10.33;9.33;;;;;-147.17;100.00;32807.84;5078122;27;50985;-52
2023/06/01 00:07:29;;;;;;;;;9.67;9.67;;;;;-147.17;100.00;31463.66;5075088;27;51129;-51
2023/06/01 00:09:55;;;;;;;;;9.00;9.00;;;;;-147.17;100.00;27255.75;5088840;27;51087;-50
2023/06/01 00:12:20;;;;;;;;;10.00;10.00;;;;;-147.17;100.00;28322.47;5089543;27;51312;-53
2023/06/01 00:14:46;;;;;;;;;9.67;9.00;;;;;-147.17;100.00;26512.16;5085163;27;51042;-50
2023/06/01 00:17:11;;;;;;;;;8.00;8.00;;;;;-147.17;100.00;26345.84;5084684;27;51103;-50
2023/06/01 00:19:38;;;;;;;;;10.67;10.67;;;;;-147.17;100.00;22923.34;5076793;27;50927;-52
2023/06/01 00:22:04;;;;;;;;;11.33;11.33;;;;;-147.17;100.00;19671.84;5090885;27;52029;-52
2023/06/01 00:24:29;;;;;;;;;9.33;9.33;;;;;-147.17;100.00;20672.00;5091291;27;51056;-50
2023/06/01 00:26:54;;;;;;;;;10.33;10.33;;;;;-147.17;100.00;20672.00;5065680;27;51418;-52
2023/06/01 00:29:20;;;;;;;;;10.00;10.00;;;;;-147.17;100.00;19421.84;5083149;27;51111;-50
2023/06/01 00:31:46;;;;;;;;;11.33;10.33;;;;;-147.17;100.00;18172.06;5083976;27;51645;-52
2023/06/01 00:34:11;;;;;;;;;9.33;8.67;;;;;-147.17;100.00;15923.47;5089813;27;51046;-52
2023/06/01 00:36:37;;;;;;;;;11.00;11.00;;;;;-147.17;100.00;14175.44;5083907;27;51114;-52
2023/06/01 00:39:03;;;;;;;;;12.67;12.67;;;;;-147.17;100.00;13426.53;5084217;27;51407;-52
2023/06/01 00:41:30;;;;;;;;;10.33;9.67;;;;;-147.17;100.00;12428.22;5077722;27;51145;-50
2023/06/01 00:43:55;;;;;;;;;11.00;11.00;;;;;-147.17;100.00;11430.19;5072453;27;51009;-52
2023/06/01 00:46:21;;;;;;;;;11.33;10.67;;;;;-147.17;100.00;9684.19;5089954;27;51445;-53
2023/06/01 00:48:46;;;;;;;;;12.67;12.00;;;;;-147.17;100.00;8936.16;5095228;27;51226;-52
2023/06/01 00:51:14;;;;;;;;;14.00;14.00;;;;;-147.17;100.00;7689.75;5085797;27;51248;-52
2023/06/01 00:53:40;;;;;;;;;12.33;12.33;;;;;-147.17;100.00;6692.91;5082470;27;51087;-52
2023/06/01 00:56:06;;;;;;;;;12.67;12.33;;;;;-147.17;100.00;5696.34;5088632;27;51218;-51
2023/06/01 00:58:32;;;;;;;;;13.00;12.00;;;;;-147.17;100.00;2957.06;5076228;27;51000;-50
2023/06/01 01:00:57;;;;;;;;;14.00;14.00;;;;;-147.17;100.00;3952.94;5088831;27;53523;-52
2023/06/01 01:03:25;;;;;;;;;11.00;10.33;;;;;-147.17;100.00;2459.22;5095343;27;50967;-50
2023/06/01 01:06:04;;;;;;;;;14.00;13.25;;;;;-147.17;100.00;2210.31;5089956;27;51239;-52
2023/06/01 01:09:07;;;;;;;;;19.00;16.33;;;;;-147.17;100.00;1214.91;5096356;27;51254;-52
2023/06/01 01:11:34;;;;;;;;;13.00;12.00;;;;;-147.17;100.00;-1769.84;5086409;27;51085;-49
2023/06/01 01:14:05;;;;;;;;;15.00;14.00;;;;;-147.17;100.00;-2267.06;5082641;27;51439;-49
2023/06/01 01:16:40;;;;;;;;;14.00;12.67;;;;;-147.17;100.00;-2515.66;5076698;27;51029;-51
2023/06/01 01:19:35;;;;;;;;;13.33;13.00;;;;;-147.17;100.00;-3758.38;5095216;27;50962;-49
2023/06/01 01:22:20;;;;;;;;;10.67;9.33;;;;;-147.17;100.00;-3758.38;5087114;27;51252;-49
2023/06/01 01:25:03;;;;;;;;;14.33;14.33;;;;;-147.17;100.00;-4752.25;5089922;27;51181;-51
2023/06/01 01:28:21;;;;;;;;;12.33;12.00;;;;;-147.17;100.00;-5497.50;5089596;27;51075;-52
2023/06/01 01:30:48;;;;;;;;;16.00;16.00;;;;;-147.17;100.00;-5745.88;5063577;27;51094;-53
2023/06/01 01:33:14;;;;;;;;;13.25;13.25;;;;;-147.17;100.00;-6242.59;5082342;27;52005;-53
2023/06/01 01:35:41;;;;;;;;;17.00;16.00;;;;;-147.17;100.00;-7732.34;5091753;27;51106;-52
2023/06/01 01:38:07;;;;;;;;;19.75;19.50;;;;;-147.17;100.00;-8973.38;5080177;27;51145;-52
2023/06/01 01:40:32;;;;;;;;;16.25;14.50;;;;;-147.17;100.00;-8477.03;5091049;27;51311;-53
2023/06/01 01:42:59;;;;;;;;;19.50;18.50;;;;;-147.17;100.00;-8725.22;5084592;27;53926;-51
2023/06/01 01:45:25;;;;;;;;;19.50;18.25;;;;;-147.17;100.00;-9965.91;5078246;27;51018;-51
2023/06/01 01:48:21;;;;;;;;;14.00;14.00;;;;;-147.17;100.00;-9469.69;5088501;27;51102;-49
2023/06/01 01:50:53;;;;;;;;;16.75;16.00;;;;;-147.17;100.00;-10214.00;5091108;27;51411;-51
2023/06/01 01:53:20;;;;;;;;;15.75;15.75;;;;;-147.17;100.00;-10214.00;5094918;27;52373;-52
2023/06/01 01:55:49;;;;;;;;;17.25;16.50;;;;;-147.17;100.00;-10710.16;5083839;27;51141;-51
2023/06/01 01:58:15;;;;;;;;;16.25;15.50;;;;;-147.17;100.00;-11206.22;5082374;27;51082;-51
2023/06/01 02:00:42;;;;;;;;;18.75;18.00;;;;;-147.17;100.00;-11702.25;5094925;27;51021;-52
2023/06/01 02:03:15;;;;;;;;;22.00;20.00;;;;;-147.17;100.00;-12446.13;5086761;27;51243;-50
2023/06/01 02:05:40;;;;;;;;;20.25;20.00;;;;;-147.17;100.00;-13189.88;5086785;27;51175;-52
2023/06/01 02:08:06;;;;;;;;;21.00;20.00;;;;;-147.17;100.00;-14429.16;5092939;27;51277;-52
2023/06/01 02:10:31;;;;;;;;;24.50;21.50;;;;;-147.17;100.00;-13933.50;5089452;27;51901;-48
2023/06/01 02:12:57;;;;;;;;;23.00;20.75;;;;;-147.17;100.00;-14181.31;5091478;27;60185;-50
2023/06/01 02:15:22;;;;;;;;;22.50;20.00;;;;;-147.17;100.00;-14429.16;5091886;27;50986;-51
2023/06/01 02:17:47;;;;;;;;;21.00;20.25;;;;;-147.17;100.00;-15172.50;5093383;27;51128;-51
2023/06/01 02:20:12;;;;;;;;;25.75;21.50;;;;;-147.17;100.00;-14924.75;5089510;27;51997;-51
2023/06/01 02:22:38;;;;;;;;;21.75;20.75;;;;;-147.17;100.00;-15420.25;5087180;27;59266;-51
2023/06/01 02:25:04;;;;;;;;;21.25;20.25;;;;;-147.17;100.00;-15420.25;5086160;27;51163;-48
2023/06/01 02:27:30;;;;;;;;;21.50;20.50;;;;;-147.17;100.00;-15668.00;5092831;27;51189;-52
2023/06/01 02:29:55;;;;;;;;;21.25;20.75;;;;;-147.17;100.00;-15420.25;5095171;27;50966;-53
2023/06/01 02:32:21;;;;;;;;;30.25;28.50;;;;;-147.17;100.00;-15420.25;5093332;27;51209;-51
2023/06/01 02:34:46;;;;;;;;;44.75;37.75;;;;;-147.17;100.00;-15420.25;5092946;27;51175;-52
2023/06/01 02:37:12;;;;;;;;;52.75;42.50;;;;;-147.17;100.00;-15668.00;5093403;27;51122;-52
2023/06/01 02:39:37;;;;;;;;;71.50;59.00;;;;;-147.17;100.00;-15915.72;5077922;27;51120;-53
2023/06/01 02:42:03;;;;;;;;;81.00;71.00;;;;;-147.17;100.00;-15915.72;5082299;27;51677;-50
2023/06/01 02:44:28;;;;;;;;;87.67;83.67;;;;;-147.17;100.00;-15917.19;5075382;27;50980;-52
2023/06/01 02:46:53;;;;;;;;;157.50;152.75;;;;;-147.17;100.00;-15917.19;5085534;27;52677;-49
2023/06/01 02:49:18;;;;;;;;;84.25;73.00;;;;;-147.17;100.00;-15917.19;5085920;27;51369;-50
2023/06/01 02:51:44;;;;;;;;;53.25;44.75;;;;;-147.17;100.00;-15917.19;5091986;27;51081;-51
2023/06/01 02:54:09;;;;;;;;;39.00;35.75;;;;;-147.17;100.00;-15917.19;5079201;27;51134;-53
2023/06/01 02:56:35;;;;;;;;;43.50;37.75;;;;;-147.17;100.00;-15917.19;5084140;27;51277;-52
2023/06/01 02:59:00;;;;;;;;;40.50;35.00;;;;;-147.17;100.00;-15917.19;5085927;27;51289;-49
2023/06/01 03:01:26;;;;;;;;;32.50;31.75;;;;;-147.17;100.00;-15917.19;5081658;27;51981;-51
2023/06/01 03:03:52;;;;;;;;;35.50;31.25;;;;;-147.17;100.00;-15917.19;5081550;27;51385;-50
2023/06/01 03:06:17;;;;;;;;;26.25;26.25;;;;;-147.17;100.00;-15917.19;5086722;27;51349;-51
2023/06/01 03:08:43;;;;;;;;;32.00;29.50;;;;;-147.17;100.00;-15917.19;5081058;27;51074;-49
2023/06/01 03:11:08;;;;;;;;;30.25;27.75;;;;;-147.17;100.00;-15917.19;5093049;27;51596;-50
2023/06/01 03:13:33;;;;;;;;;32.00;29.25;;;;;-147.17;100.00;-15917.19;5084155;27;51245;-48
2023/06/01 03:15:59;;;;;;;;;28.50;27.25;;;;;-147.17;100.00;-15917.19;5086237;27;51101;-49
2023/06/01 03:18:24;;;;;;;;;27.25;26.25;;;;;-147.17;100.00;-15917.19;5093615;27;51005;-53
2023/06/01 03:20:49;;;;;;;;;29.75;28.75;;;;;-147.17;100.00;-15917.19;5091133;27;51795;-52
2023/06/01 03:23:15;;;;;;;;;27.75;27.00;;;;;-147.17;100.00;-15917.19;5093228;27;51077;-52
2023/06/01 03:25:41;;;;;;;;;28.50;27.75;;;;;-147.17;100.00;-15917.19;5090319;27;51243;-52
2023/06/01 03:28:07;;;;;;;;;30.00;28.25;;;;;-147.17;100.00;-15917.19;5093330;27;51007;-53
2023/06/01 03:30:32;;;;;;;;;27.25;26.75;;;;;-147.17;100.00;-15917.19;5074503;27;51137;-52
2023/06/01 03:32:57;;;;;;;;;32.00;27.25;;;;;-147.17;100.00;-15917.19;5087077;27;51057;-51
2023/06/01 03:35:23;;;;;;;;;26.25;25.00;;;;;-147.17;100.00;-15917.19;5091613;27;51366;-52
2023/06/01 03:37:48;;;;;;;;;35.00;31.75;;;;;-147.17;100.00;-15917.19;5092902;27;50902;-50
2023/06/01 03:40:13;;;;;;;;;29.50;27.00;;;;;-147.17;100.00;-15917.19;5081782;27;51745;-50
2023/06/01 03:42:48;;;;;;;;;26.50;26.00;;;;;-147.17;100.00;-15917.19;5073638;27;51127;-53
2023/06/01 03:45:16;;;;;;;;;29.75;29.75;;;;;-147.17;100.00;-15917.19;5083862;27;51124;-49
2023/06/01 03:47:41;;;;;;;;;30.50;29.75;;;;;-147.17;100.00;-15917.19;5074447;27;51263;-51
2023/06/01 03:50:08;;;;;;;;;28.00;27.50;;;;;-147.17;100.00;-15917.19;5088480;27;51152;-52
2023/06/01 03:52:34;;;;;;;;;27.00;26.50;;;;;-147.17;100.00;-15917.19;5085427;27;51094;-50
2023/06/01 03:55:10;;;;;;;;;33.75;31.50;;;;;-147.17;100.00;-15917.19;5091395;27;51066;-50
2023/06/01 03:57:36;;;;;;;;;28.75;28.75;;;;;-147.17;100.00;-15917.19;5092999;27;51255;-48
2023/06/01 04:00:08;;;;;;;;;34.25;31.25;;;;;-147.17;100.00;-15917.19;5083291;27;51106;-52
2023/06/01 04:02:35;;;;;;;;;30.50;28.50;;;;;-147.17;100.00;-15917.19;5085426;27;51219;-49
2023/06/01 04:05:01;;;;;;;;;35.25;31.50;;;;;-147.17;100.00;-15917.19;5089363;27;51026;-51
2023/06/01 04:07:26;;;;;;;;;29.00;27.75;;;;;-147.17;100.00;-15917.19;5086217;27;50951;-51
2023/06/01 04:09:51;;;;;;;;;30.25;29.25;;;;;-147.17;100.00;-15917.19;5091698;27;51286;-50
2023/06/01 04:12:17;;;;;;;;;34.75;31.50;;;;;-147.17;100.00;-15917.19;5082345;27;50886;-52
2023/06/01 04:14:42;;;;;;;;;30.75;29.50;;;;;-147.17;100.00;-15917.19;5085295;27;54201;-50
2023/06/01 04:17:07;;;;;;;;;34.25;31.25;;;;;-147.17;100.00;-15917.19;5073135;27;51069;-52
2023/06/01 04:19:34;;;;;;;;;29.75;29.25;;;;;-147.17;100.00;-15917.19;5086140;27;51158;-50
2023/06/01 04:22:00;;;;;;;;;31.50;30.50;;;;;-147.17;100.00;-15917.19;5087514;27;51146;-50
2023/06/01 04:24:25;;;;;;;;;37.75;32.75;;;;;-147.17;100.00;-15917.19;5089777;27;51110;-52
2023/06/01 04:26:51;;;;;;;;;35.50;33.50;;;;;-147.17;100.00;-15917.19;5091256;27;51194;-49
2023/06/01 04:29:19;;;;;;;;;32.25;29.75;;;;;-147.17;100.00;-15917.19;5090918;27;53906;-50
2023/06/01 04:31:47;;;;;;;;;34.50;32.25;;;;;-147.17;100.00;-15917.19;5090867;27;51115;-53
2023/06/01 04:34:12;;;;;;;;;33.00;31.25;;;;;-147.17;100.00;-15917.19;5091532;27;50947;-51
2023/06/01 04:36:39;;;;;;;;;30.75;30.00;;;;;-147.17;100.00;-15917.19;5087606;27;51332;-51
2023/06/01 04:39:06;;;;;;;;;35.50;32.00;;;;;-147.17;100.00;-15917.19;5081888;27;51710;-49
2023/06/01 04:41:33;;;;;;;;;34.50;30.50;;;;;-147.17;100.00;-15917.19;5088710;27;51545;-52
2023/06/01 04:43:58;;;;;;;;;34.50;32.00;;;;;-147.17;100.00;-15917.19;5083849;27;51125;-52
2023/06/01 04:46:25;;;;;;;;;32.75;30.75;;;;;-147.17;100.00;-15917.19;5080135;27;51405;-48
2023/06/01 04:48:57;;;;;;;;;36.75;34.25;;;;;-147.17;100.00;-15917.19;5082916;27;52453;-49
2023/06/01 04:51:23;;;;;;;;;41.50;35.50;;;;;-147.17;100.00;-15917.19;5086842;27;51018;-51
2023/06/01 04:53:51;;;;;;;;;37.75;34.50;;;;;-147.17;100.00;-15917.19;5075416;27;51047;-51
2023/06/01 04:56:18;;;;;;;;;36.00;31.50;;;;;-147.17;100.00;-15917.19;5072110;27;51243;-50
2023/06/01 04:58:46;;;;;;;;;35.25;32.25;;;;;-147.17;100.00;-15917.19;5071072;28;51767;-51
2023/06/01 05:01:14;;;;;;;;;38.00;34.00;;;;;-147.17;100.00;-15917.19;5076423;27;51228;-52
2023/06/01 05:03:40;;;;;;;;;35.00;31.75;;;;;-147.17;100.00;-15917.19;5083279;27;51002;-50
2023/06/01 05:06:05;;;;;;;;;32.00;30.50;;;;;-147.17;100.00;-15917.19;5090588;27;50983;-51
2023/06/01 05:08:33;;;;;;;;;32.75;31.00;;;;;-147.17;100.00;-15917.19;5091719;27;51767;-50
2023/06/01 05:10:58;;;;;;;;;34.50;32.25;;;;;-147.17;100.00;-15917.19;5084814;27;50966;-52
2023/06/01 05:13:24;;;;;;;;;37.75;33.00;;;;;-147.17;100.00;-15917.19;5086799;27;51027;-52
2023/06/01 05:15:49;;;;;;;;;33.75;32.00;;;;;-147.17;100.00;-15917.19;5091799;27;50979;-53
2023/06/01 05:18:15;;;;;;;;;32.00;31.50;;;;;-147.17;100.00;-15917.19;5072158;27;51000;-53
2023/06/01 05:20:40;;;;;;;;;34.50;31.25;;;;;-147.17;100.00;-15917.19;5077156;27;51004;-50
2023/06/01 05:23:05;;;;;;;;;32.50;30.50;;;;;-147.17;100.00;-15917.19;5092035;27;50890;-50
2023/06/01 05:25:30;;;;;;;;;29.50;28.00;;;;;-147.17;100.00;-15915.72;5086561;27;51059;-50
2023/06/01 05:27:56;;;;;;;;;38.00;34.00;;;;;-147.17;100.00;-15668.00;5089044;27;55460;-51
2023/06/01 05:30:21;;;;;;;;;32.00;30.50;;;;;-147.17;100.00;-14676.94;5087721;27;51164;-53
2023/06/01 05:32:47;;;;;;;;;37.75;32.25;;;;;-147.17;100.00;-13437.75;5084158;27;51247;-53
2023/06/01 05:35:12;;;;;;;;;33.50;31.50;;;;;-147.17;100.00;-12198.19;5084238;27;50932;-51
2023/06/01 05:37:38;;;;;;;;;29.00;27.75;;;;;-147.17;100.00;-9221.53;5074850;27;51291;-49
2023/06/01 05:40:06;;;;;;;;;32.50;30.00;;;;;-147.17;100.00;-7484.09;5081897;27;51137;-51
2023/06/01 05:42:32;;;;;;;;;33.75;30.25;;;;;-147.17;100.00;-6490.94;5087156;27;51121;-54
2023/06/01 05:44:57;;;;;;;;;31.75;30.00;;;;;-147.17;100.00;-5000.69;5073568;27;51249;-49
2023/06/01 05:47:23;;;;;;;;;35.75;32.25;;;;;-147.17;100.00;-4503.81;5099646;27;51853;-51
2023/06/01 05:49:48;;;;;;;;;30.25;27.75;;;;;-147.17;100.00;-2515.66;5087087;27;51199;-50
2023/06/01 05:52:13;;;;;;;;;33.00;30.50;;;;;-147.17;100.00;-29.03;5093898;27;51072;-49
2023/06/01 05:54:39;;;;;;;;;30.75;28.50;;;;;-147.17;100.00;3206.00;5084319;27;51107;-53
2023/06/01 05:57:05;;;;;;;;;33.75;30.00;;;;;-147.17;100.00;5447.22;5087173;27;52641;-52
2023/06/01 05:59:31;;;;;;;;;32.50;30.75;;;;;-147.17;100.00;8188.25;5090210;27;50934;-53
2023/06/01 06:01:56;;;;;;;;;31.75;30.00;;;;;-147.17;100.00;7939.00;5091347;27;51492;-48
2023/06/01 06:04:22;;;;;;;;;32.75;30.75;;;;;-147.17;100.00;11180.69;5092484;27;51349;-52
2023/06/01 06:06:47;;;;;;;;;35.50;31.50;;;;;-147.17;100.00;10681.81;5094566;27;52231;-53
2023/06/01 06:09:13;;;;;;;;;31.25;28.75;;;;;-147.17;100.00;13426.53;5093761;27;51121;-51
2023/06/01 06:11:40;;;;;;;;;29.50;28.75;;;;;-147.17;100.00;14674.81;5084581;27;51106;-53
2023/06/01 06:14:05;;;;;;;;;28.25;28.00;;;;;-147.17;100.00;15923.47;5087651;27;51395;-54
2023/06/01 06:16:30;;;;;;;;;29.50;29.25;;;;;-147.17;100.00;19421.84;5095580;27;52247;-52
2023/06/01 06:18:56;;;;;;;;;30.50;29.75;;;;;-147.17;100.00;19671.84;5087543;27;51321;-50
2023/06/01 06:21:21;;;;;;;;;33.00;30.25;;;;;-147.17;100.00;20421.94;5085949;27;51075;-54
2023/06/01 06:23:47;;;;;;;;;31.25;29.75;;;;;-147.17;100.00;22172.75;5083244;27;51175;-50
2023/06/01 06:26:13;;;;;;;;;29.50;28.25;;;;;-147.17;100.00;26467.16;5086302;27;52787;-50
2023/06/01 06:28:38;;;;;;;;;29.25;28.50;;;;;-147.17;100.00;29266.13;5073097;27;51064;-52
2023/06/01 06:31:03;;;;;;;;;31.00;29.25;;;;;-147.17;100.00;29471.72;5075662;27;51136;-53
2023/06/01 06:33:29;;;;;;;;;33.00;30.00;;;;;-147.17;100.00;32564.84;5092189;27;51016;-53
2023/06/01 06:35:54;;;;;;;;;22.75;22.75;;;;;-147.17;100.00;35405.44;5089533;27;53202;-53
2023/06/01 06:38:20;;;;;;;;;33.25;30.75;;;;;-147.17;100.00;37369.00;5076160;27;51018;-54
2023/06/01 06:40:45;;;;;;;;;30.50;28.00;;;;;-147.17;100.00;37094.31;5080439;27;51117;-52
2023/06/01 06:43:13;;;;;;;;;26.75;26.75;;;;;-147.17;100.00;36678.41;5083887;27;51350;-52
2023/06/01 06:45:38;;;;;;;;;33.00;29.25;;;;;-147.17;100.00;38356.03;5093077;27;52002;-54
2023/06/01 06:48:04;;;;;;;;;31.00;29.75;;;;;-147.17;100.00;38505.22;5079611;27;51128;-54
2023/06/01 06:50:29;;;;;;;;;32.00;30.50;;;;;-147.17;100.00;39111.72;5092376;27;51174;-52
2023/06/01 06:52:55;;;;;;;;;29.75;27.50;;;;;-147.17;100.00;39847.88;5087553;27;51187;-51
2023/06/01 06:55:21;;;;;;;;;29.75;27.50;;;;;-147.17;100.00;41395.28;5073768;27;52014;-49
2023/06/01 06:57:47;;;;;;;;;29.00;27.50;;;;;-147.17;100.00;40986.78;5087444;27;51007;-52
2023/06/01 07:00:15;;;;;;;;;31.25;28.25;;;;;-147.17;100.00;40466.38;5076315;27;51049;-51
2023/06/01 07:02:41;;;;;;;;;27.75;25.50;;;;;-147.17;100.00;41240.13;5074159;27;51319;-50
2023/06/01 07:05:08;;;;;;;;;27.00;26.50;;;;;-147.17;100.00;41269.59;5076076;27;52177;-53
2023/06/01 07:07:33;;;;;;;;;27.25;26.50;;;;;-147.17;100.00;40702.03;5091913;27;51231;-53
2023/06/01 07:10:00;;;;;;;;;25.50;25.50;;;;;-147.17;100.00;41636.88;5081574;27;51539;-53
2023/06/01 07:12:25;;;;;;;;;26.50;25.75;;;;;-147.17;100.00;41475.81;5085573;27;51145;-51
2023/06/01 07:14:51;;;;;;;;;43.00;32.00;;;;;-147.17;100.00;41882.41;5083097;27;51891;-52
2023/06/01 07:17:16;;;;;;;;;28.75;28.00;;;;;-147.17;100.00;41629.03;5073866;27;51079;-53
2023/06/01 07:19:41;;;;;;;;;30.25;28.50;;;;;-147.17;100.00;41605.44;5073424;27;51393;-54
2023/06/01 07:22:07;;;;;;;;;40.25;32.00;;;;;-147.17;100.00;42481.56;5073647;27;51329;-53
2023/06/01 07:24:32;;;;;;;;;27.00;26.50;;;;;-147.17;100.00;41982.59;5073242;27;52588;-52
2023/06/01 07:26:58;;;;;;;;;28.25;27.00;;;;;-147.17;100.00;42348.00;5071886;27;50966;-54
2023/06/01 07:29:23;;;;;;;;;29.00;28.75;;;;;-147.17;100.00;42591.59;5087221;27;51019;-53
2023/06/01 07:31:52;;;;;;;;;30.25;28.50;;;;;-147.17;100.00;42534.63;5094385;27;51248;-54
2023/06/01 07:34:18;;;;;;;;;29.00;28.75;;;;;-147.17;100.00;42477.66;5090597;27;51035;-54
2023/06/01 07:36:46;;;;;;;;;34.50;31.50;;;;;-147.17;100.00;42452.09;5087087;27;51001;-55
2023/06/01 07:39:12;;;;;;;;;28.75;26.75;;;;;-147.17;100.00;42611.25;5086746;27;50880;-53
2023/06/01 07:41:39;;;;;;;;;27.75;26.50;;;;;-147.17;100.00;42748.78;5092504;27;50926;-53
2023/06/01 07:44:05;;;;;;;;;28.50;27.50;;;;;-147.17;100.00;42845.06;5092355;27;52843;-53
2023/06/01 07:46:30;;;;;;;;;15.75;13.75;;;;;-147.17;100.00;42640.72;5086938;27;50951;-54
2023/06/01 07:48:56;;;;;;;;;24.50;24.00;;;;;-147.17;100.00;42719.31;5088190;27;51064;-53
2023/06/01 07:51:22;;;;;;;;;29.75;28.75;;;;;-147.17;100.00;42489.44;5075327;27;50993;-54
2023/06/01 07:53:47;;;;;;;;;24.25;24.00;;;;;-147.17;100.00;42186.91;5071667;27;53037;-54
2023/06/01 07:56:12;;;;;;;;;28.00;26.75;;;;;-147.17;100.00;42041.53;5072902;27;51085;-54
2023/06/01 07:58:38;;;;;;;;;29.75;28.00;;;;;-147.17;100.00;42029.75;5081857;27;51174;-54
2023/06/01 08:01:04;;;;;;;;;28.00;26.75;;;;;-147.17;100.00;42182.97;5073109;27;51226;-52
2023/06/01 08:03:29;;;;;;;;;28.75;26.50;;;;;-147.17;100.00;42090.63;5072733;27;51094;-53
2023/06/01 08:05:59;;;;;;;;;27.25;26.25;;;;;-147.17;100.00;42194.75;5072720;28;51063;-54
2023/06/01 08:08:24;;;;;;;;;25.75;24.50;;;;;-147.17;100.00;42023.84;5087420;27;51071;-53
2023/06/01 08:10:49;;;;;;;;;29.25;27.50;;;;;-147.17;100.00;42165.28;5091417;27;51364;-54
2023/06/01 08:13:15;;;;;;;;;27.00;26.75;;;;;-147.17;100.00;42377.44;5092154;27;52279;-53
2023/06/01 08:15:42;;;;;;;;;26.50;26.00;;;;;-147.17;100.00;42308.69;5073142;27;51021;-52
2023/06/01 08:18:08;;;;;;;;;24.50;24.25;;;;;-147.17;100.00;42306.72;5072957;27;51117;-53
2023/06/01 08:20:33;;;;;;;;;25.00;25.00;;;;;-147.17;100.00;42029.75;5073041;27;51082;-55
2023/06/01 08:22:59;;;;;;;;;27.75;25.00;;;;;-147.17;100.00;42008.13;5072472;27;52150;-53
2023/06/01 08:25:24;;;;;;;;;25.00;24.75;;;;;-147.17;100.00;41925.63;5078036;27;51039;-50
2023/06/01 08:27:49;;;;;;;;;25.25;25.00;;;;;-147.17;100.00;42088.66;5092055;27;51077;-51
2023/06/01 08:30:15;;;;;;;;;24.50;24.25;;;;;-147.17;100.00;42029.75;5092967;27;51024;-54
2023/06/01 08:32:40;;;;;;;;;28.25;27.25;;;;;-147.17;100.00;41719.38;5093018;27;52809;-54
2023/06/01 08:35:07;;;;;;;;;23.00;22.75;;;;;-147.17;100.00;41876.53;5092585;27;51062;-53
2023/06/01 08:37:34;;;;;;;;;22.75;22.25;;;;;-147.17;100.00;41632.94;5091344;27;51051;-53
2023/06/01 08:39:59;;;;;;;;;26.00;24.25;;;;;-147.17;100.00;41393.31;5087692;27;51201;-54
2023/06/01 08:42:40;;;;;;;;;23.00;22.50;;;;;-147.17;100.00;41169.41;5092518;27;51881;-54
2023/06/01 08:45:06;;;;;;;;;23.25;22.50;;;;;-147.17;100.00;41299.03;5093028;27;51068;-53
2023/06/01 08:47:32;;;;;;;;;22.75;22.25;;;;;-147.17;100.00;41020.16;5092669;27;51110;-54
2023/06/01 08:50:01;;;;;;;;;22.50;22.00;;;;;-147.17;100.00;40835.56;5092947;27;50866;-54
2023/06/01 08:52:31;;;;;;;;;28.25;27.00;;;;;-147.17;100.00;40733.44;5092578;27;51793;-54
2023/06/01 08:55:01;;;;;;;;;29.50;27.75;;;;;-147.17;100.00;40552.78;5087492;27;54490;-50
2023/06/01 08:57:28;;;;;;;;;21.75;20.75;;;;;-147.17;100.00;40250.38;5088206;27;51137;-55
2023/06/01 08:59:54;;;;;;;;;27.25;26.25;;;;;-147.17;100.00;40046.19;5080900;27;51382;-51
2023/06/01 09:02:19;;;;;;;;;23.25;23.25;;;;;-147.17;100.00;39902.84;5091600;27;51155;-54
2023/06/01 09:04:45;;;;;;;;;21.25;21.25;;;;;-147.17;100.00;39877.34;5088201;27;51186;-53
2023/06/01 09:07:12;;;;;;;;;24.00;23.00;;;;;-147.17;100.00;39869.47;5094167;27;51142;-52
2023/06/01 09:09:38;;;;;;;;;22.50;22.50;;;;;-147.17;100.00;39828.25;5093092;27;51071;-54
2023/06/01 09:12:21;;;;;;;;;23.75;22.75;;;;;-147.17;100.00;40030.47;5084433;27;51137;-55
2023/06/01 09:14:47;;;;;;;;;20.25;20.25;;;;;-147.17;100.00;40079.56;5082778;27;51091;-52
2023/06/01 09:17:23;;;;;;;;;20.75;20.25;;;;;-147.17;100.00;39906.78;5075753;27;51292;-53
2023/06/01 09:19:54;;;;;;;;;20.50;20.50;;;;;-147.17;100.00;39594.63;5075686;28;51166;-55
2023/06/01 09:22:19;;;;;;;;;20.00;19.25;;;;;-147.17;100.00;39158.81;5075012;28;51868;-53
2023/06/01 09:24:59;;;;;;;;;24.25;23.25;;;;;-147.17;100.00;38858.50;5081432;27;51657;-54
2023/06/01 09:27:25;;;;;;;;;19.25;19.25;;;;;-147.17;100.00;38568.00;5091262;27;51119;-54
2023/06/01 09:30:01;;;;;;;;;24.50;24.00;;;;;-147.17;100.00;38568.00;5094260;27;51371;-57
2023/06/01 09:32:27;;;;;;;;;23.25;23.00;;;;;-147.17;100.00;38479.69;5077743;27;52180;-54
2023/06/01 09:34:55;;;;;;;;;27.25;25.00;;;;;-147.17;100.00;38528.75;5079893;27;51257;-54
2023/06/01 09:37:20;;;;;;;;;23.75;23.75;;;;;-147.17;100.00;38758.41;5094415;27;52865;-54
2023/06/01 09:39:45;;;;;;;;;22.25;21.75;;;;;-147.17;100.00;38552.31;5085842;27;51077;-53
2023/06/01 09:42:11;;;;;;;;;23.75;23.00;;;;;-147.17;100.00;38363.91;5093812;27;51793;-53
2023/06/01 09:44:39;;;;;;;;;22.50;22.25;;;;;-147.17;100.00;38548.38;5095659;27;51090;-54
2023/06/01 09:47:10;;;;;;;;;20.00;19.00;;;;;-147.17;100.00;38609.22;5094103;27;50955;-52
2023/06/01 09:49:39;;;;;;;;;18.50;18.00;;;;;-147.17;100.00;38479.69;5094508;27;50993;-55
2023/06/01 09:52:04;;;;;;;;;23.25;21.75;;;;;-147.17;100.00;38277.53;5094572;27;52733;-54
2023/06/01 09:54:31;;;;;;;;;21.00;20.25;;;;;-147.17;100.00;38065.59;5095093;27;51220;-54
2023/06/01 09:56:59;;;;;;;;;19.50;18.50;;;;;-147.17;100.00;38289.31;5075009;27;51250;-53
2023/06/01 09:59:26;;;;;;;;;20.25;19.50;;;;;-147.17;100.00;38409.03;5074598;28;51059;-54
2023/06/01 10:01:53;;;;;;;;;20.75;19.50;;;;;-147.17;100.00;38644.56;5074497;27;51135;-52
2023/06/01 10:04:28;;;;;;;;;20.50;19.50;;;;;-147.17;100.00;38919.34;5074519;27;50994;-53
2023/06/01 10:06:55;;;;;;;;;22.25;21.50;;;;;-147.17;100.00;39127.41;5093505;27;51118;-54
2023/06/01 10:09:24;;;;;;;;;17.00;17.00;;;;;-147.17;100.00;39710.47;5094781;27;51144;-50
2023/06/01 10:11:53;;;;;;;;;21.25;20.75;;;;;-147.17;100.00;39918.56;5092523;27;53073;-54
2023/06/01 10:14:19;;;;;;;;;19.50;19.00;;;;;-147.17;100.00;40446.75;5090004;27;51008;-53
2023/06/01 10:16:45;;;;;;;;;18.00;17.00;;;;;-147.17;100.00;41369.75;5074430;27;51013;-53
2023/06/01 10:19:12;;;;;;;;;19.00;18.00;;;;;-147.17;100.00;42269.41;5072156;27;51365;-53
2023/06/01 10:21:39;;;;;;;;;20.00;19.75;;;;;-147.17;100.00;42854.88;5073497;27;52058;-50
2023/06/01 10:24:06;;;;;;;;;18.75;18.75;;;;;-147.17;100.00;43499.38;5074354;27;50970;-55
2023/06/01 10:26:41;;;;;;;;;15.75;15.75;;;;;-147.17;100.00;44167.59;5074564;27;51130;-54
2023/06/01 10:29:09;;;;;;;;;20.00;19.00;;;;;-147.17;100.00;44688.47;5089077;27;51088;-53
2023/06/01 10:31:40;;;;;;;;;22.50;22.25;;;;;-147.17;100.00;44759.25;5074028;27;51056;-52
2023/06/01 10:34:08;;;;;;;;;20.75;20.75;;;;;-147.17;100.00;45272.34;5073812;27;51131;-54
2023/06/01 10:36:52;;;;;;;;;19.25;18.25;;;;;-147.17;100.00;45911.34;5074223;28;50919;-53
2023/06/01 10:39:23;;;;;;;;;20.50;18.50;;;;;-147.17;100.00;46460.00;5080512;27;51325;-53
2023/06/01 10:41:48;;;;;;;;;19.25;19.00;;;;;-147.17;100.00;46743.22;5092741;27;51247;-53
2023/06/01 10:44:39;;;;;;;;;19.33;18.33;;;;;-147.17;100.00;47095.28;5072580;27;51221;-53
2023/06/01 10:47:10;;;;;;;;;19.67;19.33;;;;;-147.17;100.00;47146.41;5085098;27;51030;-53
2023/06/01 10:50:01;;;;;;;;;18.25;17.25;;;;;-147.17;100.00;47288.03;5073293;27;51027;-52
2023/06/01 10:52:28;;;;;;;;;19.75;19.25;;;;;-147.17;100.00;47295.91;5070614;27;52170;-53